Time;durP1;ratioP1;P1;durP2;ratioP2;P2;SDS_P1;SDS_P2;PMS_P1;PMS_P2;Temp;Humidity;BMP_temperature;BMP_pressure;BME280_temperature;BME280_humidity;BME280_pressure;Samples;Min_cycle;Max_cycle;Signal;HPM_P1;HPM_P2
2022/08/05 00:00:48;;;;;;;1.90;0.95;;;25.20;62.30;;;;;;4507615;31;20227;-67
2022/08/05 00:03:14;;;;;;;2.28;0.90;;;25.20;62.30;;;;;;4507487;31;20398;-67
2022/08/05 00:05:42;;;;;;;1.50;1.20;;;25.20;62.30;;;;;;4507478;31;20144;-67
2022/08/05 00:08:08;;;;;;;3.13;1.10;;;25.20;62.30;;;;;;4507267;31;20161;-66
2022/08/05 00:10:34;;;;;;;1.70;0.90;;;25.20;62.30;;;;;;4507755;31;20092;-68
2022/08/05 00:13:00;;;;;;;2.08;0.93;;;25.20;62.30;;;;;;4492896;31;20104;-66
2022/08/05 00:15:26;;;;;;;2.08;0.90;;;25.20;62.40;;;;;;4507691;31;20072;-66
2022/08/05 00:17:51;;;;;;;3.65;1.10;;;25.20;62.30;;;;;;4507435;31;20071;-66
2022/08/05 00:20:17;;;;;;;2.08;0.77;;;25.20;62.30;;;;;;4507727;31;20065;-66
2022/08/05 00:22:43;;;;;;;2.40;0.70;;;25.20;62.30;;;;;;4492825;31;20084;-66
2022/08/05 00:25:09;;;;;;;2.05;1.13;;;25.20;62.30;;;;;;4507588;31;20072;-67
2022/08/05 00:27:35;;;;;;;2.60;0.90;;;25.20;62.30;;;;;;4507259;31;20077;-66
2022/08/05 00:30:00;;;;;;;1.83;1.00;;;25.20;62.30;;;;;;4492929;31;20091;-66
2022/08/05 00:32:26;;;;;;;1.60;0.80;;;25.20;62.30;;;;;;4510023;31;20077;-66
2022/08/05 00:34:52;;;;;;;2.95;0.85;;;25.20;62.30;;;;;;4510222;31;20087;-66
2022/08/05 00:37:18;;;;;;;1.58;0.85;;;25.20;62.30;;;;;;4510214;31;20394;-66
2022/08/05 00:39:44;;;;;;;2.22;1.02;;;25.10;62.30;;;;;;4510213;31;20069;-67
2022/08/05 00:42:09;;;;;;;2.63;1.00;;;25.20;62.30;;;;;;4509855;31;20306;-67
2022/08/05 00:44:35;;;;;;;1.50;0.90;;;25.20;62.30;;;;;;4495562;31;20083;-67
2022/08/05 00:47:01;;;;;;;1.80;1.00;;;25.10;62.20;;;;;;4510045;31;20077;-67
2022/08/05 00:49:27;;;;;;;1.95;1.00;;;25.10;62.20;;;;;;4509781;31;20068;-66
2022/08/05 00:51:52;;;;;;;2.33;1.20;;;25.10;62.20;;;;;;4510208;31;20088;-67
2022/08/05 00:54:19;;;;;;;1.77;1.00;;;25.10;62.20;;;;;;4509943;31;20080;-67
2022/08/05 00:56:45;;;;;;;1.13;0.60;;;25.10;62.20;;;;;;4509657;31;20083;-66
2022/08/05 00:59:11;;;;;;;1.85;0.70;;;25.10;63.10;;;;;;4495232;31;20212;-66
2022/08/05 01:01:36;;;;;;;1.65;0.77;;;25.10;62.20;;;;;;4495643;31;20226;-67
2022/08/05 01:04:02;;;;;;;1.52;1.00;;;25.10;62.20;;;;;;4509742;31;20464;-66
2022/08/05 01:06:28;;;;;;;1.38;0.75;;;25.10;62.20;;;;;;4510123;31;20108;-66
2022/08/05 01:08:54;;;;;;;1.48;0.73;;;25.10;62.20;;;;;;4509730;31;20083;-66
2022/08/05 01:11:29;;;;;;;1.65;0.88;;;25.10;62.20;;;;;;4509510;31;20226;-66
2022/08/05 01:14:10;;;;;;;1.77;0.90;;;25.10;62.20;;;;;;4509415;31;20506;-67
2022/08/05 01:16:49;;;;;;;1.70;0.65;;;25.10;62.20;;;;;;4509448;31;20086;-67
2022/08/05 01:19:32;;;;;;;1.88;0.70;;;25.10;62.20;;;;;;4509931;31;20162;-66
2022/08/05 01:22:17;;;;;;;1.88;0.90;;;25.10;62.20;;;;;;4509423;31;20081;-67
2022/08/05 01:24:49;;;;;;;1.23;0.77;;;25.10;62.20;;;;;;4509283;31;20150;-66
2022/08/05 01:27:46;;;;;;;1.35;0.80;;;25.10;62.20;;;;;;4509386;31;20529;-67
2022/08/05 01:30:12;;;;;;;2.47;0.90;;;25.10;62.20;;;;;;4509441;31;20087;-66
2022/08/05 01:32:41;;;;;;;1.33;0.73;;;25.10;62.30;;;;;;4509125;31;20076;-67
2022/08/05 01:35:16;;;;;;;1.15;0.70;;;25.10;62.20;;;;;;4509331;31;20065;-67
2022/08/05 01:37:50;;;;;;;1.48;0.80;;;25.10;62.20;;;;;;4509217;31;20206;-66
2022/08/05 01:40:18;;;;;;;2.45;0.80;;;25.00;62.20;;;;;;4509676;31;20087;-66
2022/08/05 01:42:45;;;;;;;1.33;0.95;;;25.00;62.10;;;;;;4508550;31;20214;-66
2022/08/05 01:45:13;;;;;;;1.30;0.68;;;25.00;62.20;;;;;;4509052;31;20494;-67
2022/08/05 01:47:40;;;;;;;1.30;0.60;;;25.00;62.20;;;;;;4509117;31;20080;-66
2022/08/05 01:50:14;;;;;;;1.17;0.85;;;25.00;62.20;;;;;;4508842;31;20091;-66
2022/08/05 01:52:42;;;;;;;1.52;0.73;;;25.00;62.20;;;;;;4509429;31;20233;-67
2022/08/05 01:55:12;;;;;;;2.55;1.00;;;25.00;62.30;;;;;;4509048;31;20499;-67
2022/08/05 01:57:42;;;;;;;1.20;0.80;;;25.00;62.30;;;;;;4508952;31;20198;-67
2022/08/05 02:00:09;;;;;;;1.27;0.55;;;25.00;62.30;;;;;;4509105;31;20594;-66
2022/08/05 02:02:39;;;;;;;1.77;0.80;;;25.00;62.30;;;;;;4508886;31;20073;-67
2022/08/05 02:05:08;;;;;;;1.75;0.95;;;25.00;62.30;;;;;;4509290;31;20077;-67
2022/08/05 02:07:35;;;;;;;3.28;0.93;;;25.00;62.30;;;;;;4508836;31;20079;-66
2022/08/05 02:10:03;;;;;;;2.30;0.80;;;25.00;62.30;;;;;;4508822;31;20140;-66
2022/08/05 02:12:52;;;;;;;1.90;0.80;;;25.00;62.30;;;;;;4508772;31;20080;-67
2022/08/05 02:15:35;;;;;;;1.42;0.80;;;25.00;62.20;;;;;;4509120;31;20161;-66
2022/08/05 02:18:10;;;;;;;1.38;0.80;;;25.00;62.20;;;;;;4508890;31;20096;-66
2022/08/05 02:20:56;;;;;;;1.05;0.60;;;25.00;62.30;;;;;;4509015;31;20083;-67
2022/08/05 02:23:27;;;;;;;1.70;0.80;;;25.00;62.20;;;;;;4508504;31;20088;-67
2022/08/05 02:25:54;;;;;;;1.38;0.60;;;25.00;62.30;;;;;;4508696;31;20069;-67
2022/08/05 02:28:25;;;;;;;1.42;0.90;;;25.00;62.20;;;;;;4508734;31;20101;-66
2022/08/05 02:30:57;;;;;;;2.08;0.82;;;25.00;62.30;;;;;;4508644;31;20549;-66
2022/08/05 02:33:24;;;;;;;0.90;0.70;;;25.00;62.30;;;;;;4508789;31;20201;-66
2022/08/05 02:35:56;;;;;;;1.13;0.70;;;25.00;62.30;;;;;;4508172;31;20116;-66
2022/08/05 02:38:23;;;;;;;1.50;0.80;;;25.00;62.30;;;;;;4508179;31;20091;-66
2022/08/05 02:40:50;;;;;;;0.98;0.70;;;24.90;62.20;;;;;;4508370;31;20103;-66
2022/08/05 02:43:18;;;;;;;1.35;0.70;;;25.00;62.30;;;;;;4508118;31;20162;-67
2022/08/05 02:45:46;;;;;;;1.45;0.82;;;24.90;62.30;;;;;;4508183;31;20226;-66
2022/08/05 02:48:13;;;;;;;1.05;0.63;;;24.90;62.30;;;;;;4508535;31;20493;-67
2022/08/05 02:50:45;;;;;;;1.23;0.60;;;25.00;62.30;;;;;;4507976;31;20099;-67
2022/08/05 02:53:13;;;;;;;1.02;0.80;;;24.90;62.30;;;;;;4507959;31;20162;-71
2022/08/05 02:55:40;;;;;;;2.05;0.85;;;24.90;62.30;;;;;;4508410;31;20065;-66
2022/08/05 02:58:06;;;;;;;0.95;0.55;;;24.90;62.30;;;;;;4508147;31;20121;-66
2022/08/05 03:00:35;;;;;;;1.55;0.80;;;24.90;62.30;;;;;;4508408;31;20168;-67
2022/08/05 03:03:02;;;;;;;1.25;0.60;;;24.90;62.30;;;;;;4508048;31;20521;-67
2022/08/05 03:05:28;;;;;;;1.60;1.05;;;24.90;62.30;;;;;;4507792;31;20073;-67
2022/08/05 03:07:54;;;;;;;0.90;0.63;;;24.90;62.30;;;;;;4508270;31;20401;-66
2022/08/05 03:10:21;;;;;;;1.17;0.60;;;24.90;62.30;;;;;;4507983;31;20076;-67
2022/08/05 03:12:48;;;;;;;1.08;0.70;;;24.90;62.30;;;;;;4507942;31;20496;-66
2022/08/05 03:15:14;;;;;;;0.93;0.60;;;24.90;62.30;;;;;;4507963;31;20169;-67
2022/08/05 03:17:40;;;;;;;1.13;0.60;;;24.90;62.30;;;;;;4508176;31;20080;-67
2022/08/05 03:20:06;;;;;;;0.43;0.40;;;24.90;62.40;;;;;;4507896;31;20099;-65
2022/08/05 03:22:32;;;;;;;0.70;0.50;;;24.90;62.40;;;;;;4507785;31;20160;-67
2022/08/05 03:24:58;;;;;;;0.80;0.52;;;24.90;62.30;;;;;;4507560;31;20476;-67
2022/08/05 03:27:25;;;;;;;0.80;0.60;;;24.90;62.40;;;;;;4507728;31;20535;-66
2022/08/05 03:29:51;;;;;;;1.40;0.70;;;24.90;62.40;;;;;;4507806;31;20197;-67
2022/08/05 03:32:18;;;;;;;1.20;0.47;;;24.90;62.30;;;;;;4507513;31;20076;-67
2022/08/05 03:34:44;;;;;;;1.17;0.77;;;24.80;62.30;;;;;;4507514;31;20193;-66
2022/08/05 03:37:11;;;;;;;1.77;0.65;;;24.80;62.30;;;;;;4507765;31;20244;-67
2022/08/05 03:39:37;;;;;;;1.00;0.60;;;24.80;62.20;;;;;;4507717;31;20178;-66
2022/08/05 03:42:03;;;;;;;0.90;0.47;;;24.80;62.30;;;;;;4507699;31;20502;-67
2022/08/05 03:44:29;;;;;;;1.58;0.60;;;24.80;63.10;;;;;;4507449;31;20525;-66
2022/08/05 03:46:55;;;;;;;1.10;0.63;;;24.80;62.30;;;;;;4507665;31;20077;-66
2022/08/05 03:49:21;;;;;;;0.70;0.60;;;24.80;62.30;;;;;;4507908;31;20446;-67
2022/08/05 03:51:57;;;;;;;0.95;0.55;;;24.80;62.20;;;;;;4507659;31;20088;-66
2022/08/05 03:54:34;;;;;;;1.08;0.60;;;24.80;62.20;;;;;;4507662;31;20057;-67
2022/08/05 03:57:02;;;;;;;1.10;0.77;;;24.80;62.20;;;;;;4507979;31;20105;-67
2022/08/05 03:59:36;;;;;;;1.20;0.60;;;24.80;62.20;;;;;;4507513;31;20077;-66
2022/08/05 04:02:04;;;;;;;0.60;0.50;;;24.80;62.20;;;;;;4507973;31;20083;-67
2022/08/05 04:04:32;;;;;;;0.70;0.50;;;24.80;62.30;;;;;;4493323;31;20544;-67
2022/08/05 04:07:00;;;;;;;2.25;0.70;;;24.80;62.20;;;;;;4509978;31;20210;-67
2022/08/05 04:09:28;;;;;;;1.05;0.63;;;24.80;62.20;;;;;;4510676;31;20093;-66
2022/08/05 04:11:55;;;;;;;1.00;0.63;;;24.80;62.30;;;;;;4510330;31;20317;-66
2022/08/05 04:14:21;;;;;;;0.93;0.50;;;24.80;62.30;;;;;;4510652;31;20109;-67
2022/08/05 04:16:47;;;;;;;0.95;0.40;;;24.80;62.20;;;;;;4510564;31;20091;-67
2022/08/05 04:19:13;;;;;;;1.08;0.52;;;24.80;62.30;;;;;;4510465;31;20079;-66
2022/08/05 04:21:40;;;;;;;1.13;0.70;;;24.70;62.20;;;;;;4496383;31;20069;-67
2022/08/05 04:24:06;;;;;;;1.65;0.65;;;24.80;62.30;;;;;;4510405;31;20504;-66
2022/08/05 04:26:32;;;;;;;1.75;0.60;;;24.70;62.20;;;;;;4510386;31;20485;-66
2022/08/05 04:28:59;;;;;;;1.27;0.60;;;24.80;62.30;;;;;;4510536;31;20161;-66
2022/08/05 04:31:25;;;;;;;0.68;0.40;;;24.70;62.30;;;;;;4510093;31;20410;-67
2022/08/05 04:33:51;;;;;;;0.52;0.45;;;24.80;62.30;;;;;;4510525;31;20131;-67
2022/08/05 04:36:17;;;;;;;0.93;0.50;;;24.70;62.20;;;;;;4510227;31;20081;-67
2022/08/05 04:38:43;;;;;;;0.57;0.45;;;24.70;63.10;;;;;;4510244;31;20122;-67
2022/08/05 04:41:09;;;;;;;1.08;0.60;;;24.70;62.20;;;;;;4510436;31;20128;-67
2022/08/05 04:43:36;;;;;;;0.80;0.50;;;24.70;62.20;;;;;;4509608;31;20430;-67
2022/08/05 04:46:03;;;;;;;0.40;0.40;;;24.70;62.20;;;;;;4510226;31;20095;-67
2022/08/05 04:48:29;;;;;;;1.00;0.70;;;24.70;62.20;;;;;;4510121;31;20405;-67
2022/08/05 04:50:55;;;;;;;0.60;0.45;;;24.70;62.20;;;;;;4510072;31;20073;-66
2022/08/05 04:53:21;;;;;;;0.65;0.40;;;24.70;62.30;;;;;;4510018;31;20178;-66
2022/08/05 04:55:47;;;;;;;1.13;0.70;;;24.70;62.20;;;;;;4510187;31;20073;-66
2022/08/05 04:58:16;;;;;;;1.05;0.57;;;24.70;62.20;;;;;;4495578;31;20092;-66
2022/08/05 05:00:42;;;;;;;0.98;0.63;;;24.70;62.20;;;;;;4510252;31;20217;-67
2022/08/05 05:03:09;;;;;;;0.75;0.32;;;24.70;62.30;;;;;;4509783;31;20095;-67
2022/08/05 05:05:36;;;;;;;1.10;0.47;;;24.70;62.20;;;;;;4509822;31;20083;-67
2022/08/05 05:08:04;;;;;;;0.50;0.30;;;24.70;62.30;;;;;;4509949;31;20222;-66
2022/08/05 05:10:37;;;;;;;0.40;0.30;;;24.70;62.30;;;;;;4509756;31;20202;-66
2022/08/05 05:13:02;;;;;;;1.30;0.60;;;24.70;62.30;;;;;;4509848;31;20084;-66
2022/08/05 05:15:28;;;;;;;0.77;0.45;;;24.70;62.30;;;;;;4509879;31;20485;-66
2022/08/05 05:17:54;;;;;;;1.58;0.70;;;24.70;62.30;;;;;;4509802;31;20244;-66
2022/08/05 05:20:20;;;;;;;0.50;0.40;;;24.70;62.40;;;;;;4509283;31;20418;-67
2022/08/05 05:22:46;;;;;;;0.63;0.45;;;24.70;62.40;;;;;;4509484;31;20092;-66
2022/08/05 05:25:13;;;;;;;0.75;0.50;;;24.70;62.40;;;;;;4509481;31;20127;-67
2022/08/05 05:27:39;;;;;;;0.47;0.40;;;24.70;62.40;;;;;;4509633;31;20238;-66
2022/08/05 05:30:05;;;;;;;1.15;0.43;;;24.70;62.40;;;;;;4495257;31;20508;-67
2022/08/05 05:32:31;;;;;;;0.52;0.35;;;24.70;62.40;;;;;;4495115;31;20132;-67
2022/08/05 05:34:57;;;;;;;1.75;0.40;;;24.70;62.40;;;;;;4509121;31;20083;-67
2022/08/05 05:37:23;;;;;;;6.20;0.55;;;24.60;62.20;;;;;;4495078;31;20069;-67
2022/08/05 05:39:49;;;;;;;2.08;0.60;;;24.60;61.80;;;;;;4509332;31;20119;-66
2022/08/05 05:42:15;;;;;;;1.60;0.60;;;24.60;61.40;;;;;;4509092;31;20238;-66
2022/08/05 05:44:41;;;;;;;0.40;0.40;;;24.60;61.00;;;;;;4509173;31;20189;-67
2022/08/05 05:47:07;;;;;;;2.28;0.63;;;24.60;60.80;;;;;;4509232;31;20421;-67
2022/08/05 05:49:32;;;;;;;1.10;0.40;;;24.50;60.60;;;;;;4509177;31;20153;-67
2022/08/05 05:51:59;;;;;;;2.03;0.60;;;24.50;60.50;;;;;;4494667;31;20493;-67
2022/08/05 05:54:24;;;;;;;1.25;0.55;;;24.40;60.30;;;;;;4509323;31;20073;-67
2022/08/05 05:56:50;;;;;;;4.82;0.77;;;24.40;60.20;;;;;;4509284;31;20247;-67
2022/08/05 05:59:17;;;;;;;2.00;0.60;;;24.40;60.00;;;;;;4494727;31;20100;-70
2022/08/05 06:01:43;;;;;;;3.85;0.68;;;24.40;59.90;;;;;;4508960;31;20120;-67
2022/08/05 06:04:10;;;;;;;4.00;0.90;;;24.40;59.90;;;;;;4508608;31;20102;-67
2022/08/05 06:06:36;;;;;;;2.53;0.60;;;24.40;59.80;;;;;;4508912;31;20084;-67
2022/08/05 06:09:04;;;;;;;1.40;0.57;;;24.40;59.70;;;;;;4508809;31;20065;-67
2022/08/05 06:11:31;;;;;;;4.50;0.90;;;24.40;59.60;;;;;;4508792;31;20215;-66
2022/08/05 06:13:57;;;;;;;1.15;0.60;;;24.30;59.50;;;;;;4508718;31;20089;-67
2022/08/05 06:16:23;;;;;;;4.15;0.75;;;24.40;59.60;;;;;;4509173;31;20398;-67
2022/08/05 06:18:49;;;;;;;3.20;0.80;;;24.40;59.60;;;;;;4508437;31;20080;-67
2022/08/05 06:21:15;;;;;;;1.88;0.50;;;24.40;59.80;;;;;;4508662;31;20215;-67
2022/08/05 06:23:40;;;;;;;2.00;0.75;;;24.40;59.80;;;;;;4508529;31;20076;-67
2022/08/05 06:26:06;;;;;;;2.42;0.65;;;24.40;59.70;;;;;;4508554;31;20072;-67
2022/08/05 06:28:32;;;;;;;3.75;0.70;;;24.40;59.70;;;;;;4493561;31;20079;-67
2022/08/05 06:30:58;;;;;;;4.63;0.88;;;24.40;59.60;;;;;;4508228;31;20414;-67
2022/08/05 06:33:23;;;;;;;2.35;0.63;;;24.40;59.70;;;;;;4508217;31;20077;-68
2022/08/05 06:35:50;;;;;;;3.20;0.50;;;24.50;59.70;;;;;;4508711;31;20076;-67
2022/08/05 06:38:16;;;;;;;1.75;0.68;;;24.50;59.80;;;;;;4508383;31;20091;-67
2022/08/05 06:40:42;;;;;;;4.30;0.90;;;24.50;59.70;;;;;;4508378;31;20065;-66
2022/08/05 06:43:08;;;;;;;3.47;0.60;;;24.60;59.80;;;;;;4508261;31;20169;-66
2022/08/05 06:45:34;;;;;;;3.92;0.63;;;24.60;59.90;;;;;;4508227;31;20115;-67
2022/08/05 06:48:00;;;;;;;5.75;0.68;;;24.50;59.80;;;;;;4507973;31;20088;-67
2022/08/05 06:50:32;;;;;;;2.83;0.75;;;24.50;59.80;;;;;;4507984;31;20088;-67
2022/08/05 06:52:58;;;;;;;2.63;0.70;;;24.60;59.70;;;;;;4508547;31;20573;-67
2022/08/05 06:55:24;;;;;;;5.78;0.68;;;24.60;59.60;;;;;;4508137;31;20217;-67
2022/08/05 06:57:50;;;;;;;3.30;0.55;;;24.60;59.40;;;;;;4508024;31;20079;-67
2022/08/05 07:00:17;;;;;;;2.30;0.88;;;24.60;59.40;;;;;;4508101;31;20088;-67
2022/08/05 07:02:44;;;;;;;3.20;0.52;;;24.60;59.40;;;;;;4508259;31;20186;-67
2022/08/05 07:05:11;;;;;;;3.10;0.55;;;24.60;59.20;;;;;;4507825;31;20089;-67
2022/08/05 07:07:38;;;;;;;1.23;0.50;;;24.70;59.20;;;;;;4508304;31;20161;-67
2022/08/05 07:10:05;;;;;;;1.25;0.50;;;24.60;59.00;;;;;;4507715;31;20084;-67
2022/08/05 07:18:00;;;;;;;1.55;0.60;;;24.60;58.80;;;;;;4507970;31;20265;-66
2022/08/05 07:20:26;;;;;;;4.80;0.88;;;24.60;58.80;;;;;;4507849;31;20088;-67
2022/08/05 07:22:52;;;;;;;3.75;0.50;;;24.60;58.80;;;;;;4507785;31;20124;-66
2022/08/05 07:25:18;;;;;;;3.78;0.52;;;24.60;58.60;;;;;;4493570;31;20069;-67
2022/08/05 07:27:43;;;;;;;1.52;0.60;;;24.70;58.50;;;;;;4507991;31;20064;-67
2022/08/05 07:30:10;;;;;;;2.95;0.60;;;24.70;58.40;;;;;;4507547;31;20068;-67
2022/08/05 07:32:37;;;;;;;1.98;0.50;;;24.70;58.30;;;;;;4507749;31;20418;-67
2022/08/05 07:35:10;;;;;;;5.85;0.60;;;24.70;58.20;;;;;;4507973;31;20069;-67
2022/08/05 07:37:36;;;;;;;3.30;0.63;;;24.70;58.10;;;;;;4507436;31;20076;-68
2022/08/05 07:40:03;;;;;;;3.78;0.65;;;24.70;58.00;;;;;;4507714;31;20096;-67
2022/08/05 07:42:30;;;;;;;5.00;0.60;;;24.70;57.90;;;;;;4510890;31;20092;-67
2022/08/05 07:44:55;;;;;;;2.67;0.68;;;24.70;57.90;;;;;;4510536;31;20162;-66
2022/08/05 07:47:21;;;;;;;2.38;0.65;;;24.70;57.70;;;;;;4510998;31;20113;-67
2022/08/05 07:49:47;;;;;;;2.15;0.43;;;24.70;57.40;;;;;;4510878;31;20520;-67
2022/08/05 07:52:13;;;;;;;1.88;0.70;;;24.70;57.30;;;;;;4510931;31;20065;-67
2022/08/05 07:54:39;;;;;;;3.40;0.65;;;24.70;57.30;;;;;;4510847;31;20490;-67
2022/08/05 07:57:05;;;;;;;2.88;0.77;;;24.70;57.30;;;;;;4496562;31;20085;-67
2022/08/05 07:59:30;;;;;;;1.67;0.50;;;24.70;57.10;;;;;;4510724;31;20073;-66
2022/08/05 08:01:57;;;;;;;2.17;0.70;;;24.60;57.00;;;;;;4510892;31;20185;-67
2022/08/05 08:04:23;;;;;;;3.55;0.70;;;24.60;57.00;;;;;;4510374;31;20157;-66
2022/08/05 08:06:49;;;;;;;4.00;0.80;;;24.60;57.10;;;;;;4510666;31;20073;-67
2022/08/05 08:09:14;;;;;;;2.40;0.68;;;24.60;57.20;;;;;;4510923;31;20468;-67
2022/08/05 08:11:40;;;;;;;2.85;0.80;;;24.60;57.10;;;;;;4510602;31;20091;-67
2022/08/05 08:14:06;;;;;;;2.33;0.75;;;24.60;57.20;;;;;;4496428;31;20080;-67
2022/08/05 08:16:32;;;;;;;2.28;0.60;;;24.60;57.20;;;;;;4510716;31;20572;-67
2022/08/05 08:18:58;;;;;;;2.72;0.68;;;24.60;57.20;;;;;;4495952;31;20131;-66
2022/08/05 08:21:23;;;;;;;1.73;0.68;;;24.60;57.20;;;;;;4496253;31;20080;-67
2022/08/05 08:23:50;;;;;;;2.35;0.50;;;24.70;57.20;;;;;;4510585;31;20092;-66
2022/08/05 08:26:15;;;;;;;2.65;0.60;;;24.70;57.20;;;;;;4510402;31;20190;-66
2022/08/05 08:28:41;;;;;;;2.78;0.65;;;24.70;57.30;;;;;;4509994;31;20468;-67
2022/08/05 08:31:07;;;;;;;2.97;0.50;;;24.70;57.40;;;;;;4510348;31;20240;-66
2022/08/05 08:33:34;;;;;;;1.88;0.40;;;24.70;57.30;;;;;;4510616;31;20083;-67
2022/08/05 08:36:00;;;;;;;1.83;0.63;;;24.80;57.30;;;;;;4510555;31;20091;-67
2022/08/05 08:38:26;;;;;;;3.28;0.80;;;24.80;57.30;;;;;;4495949;31;20082;-67
2022/08/05 08:40:52;;;;;;;1.23;0.50;;;24.80;57.40;;;;;;4509952;31;20116;-67
2022/08/05 08:43:20;;;;;;;1.17;0.50;;;24.80;57.60;;;;;;4510186;31;20085;-66
2022/08/05 08:45:49;;;;;;;3.53;0.50;;;24.80;57.50;;;;;;4509939;31;20098;-67
2022/08/05 08:48:17;;;;;;;3.50;0.80;;;24.90;57.50;;;;;;4509788;31;20072;-66
2022/08/05 08:50:45;;;;;;;2.80;0.40;;;24.90;57.30;;;;;;4510300;31;20091;-67
2022/08/05 08:53:15;;;;;;;1.85;0.57;;;24.90;57.20;;;;;;4509911;31;20406;-68
2022/08/05 08:55:41;;;;;;;2.00;0.45;;;24.90;57.10;;;;;;4509711;31;20087;-67
2022/08/05 08:58:09;;;;;;;2.22;0.60;;;24.90;57.10;;;;;;4495565;31;20092;-66
2022/08/05 09:00:35;;;;;;;2.95;0.70;;;24.90;57.00;;;;;;4509906;31;20068;-67
2022/08/05 09:03:06;;;;;;;2.47;0.50;;;24.90;56.80;;;;;;4510031;31;20473;-66
2022/08/05 09:05:32;;;;;;;2.28;0.40;;;24.90;56.70;;;;;;4509749;31;20180;-67
2022/08/05 09:07:58;;;;;;;7.22;0.47;;;24.90;56.80;;;;;;4509756;31;20202;-66
2022/08/05 09:10:24;;;;;;;2.20;0.57;;;24.90;56.80;;;;;;4509742;31;20486;-67
2022/08/05 09:12:50;;;;;;;1.85;0.45;;;24.90;56.70;;;;;;4509454;31;20065;-67
2022/08/05 09:15:16;;;;;;;2.17;0.70;;;24.90;56.60;;;;;;4509691;31;20408;-68
2022/08/05 09:17:42;;;;;;;0.98;0.30;;;25.00;56.50;;;;;;4509651;31;20454;-67
2022/08/05 09:20:08;;;;;;;1.70;0.40;;;25.00;56.40;;;;;;4509611;31;20204;-67
2022/08/05 09:23:04;;;;;;;1.95;0.20;;;25.00;56.20;;;;;;4509523;31;20115;-67
2022/08/05 09:25:29;;;;;;;3.50;0.45;;;25.00;55.90;;;;;;4509558;31;20073;-66
2022/08/05 09:27:55;;;;;;;2.40;0.63;;;25.00;56.10;;;;;;4509450;31;20088;-66
2022/08/05 09:30:21;;;;;;;0.98;0.30;;;25.00;55.80;;;;;;4509277;31;20277;-67
2022/08/05 09:32:47;;;;;;;2.78;0.47;;;25.00;55.70;;;;;;4509450;31;20199;-67
2022/08/05 09:35:16;;;;;;;1.30;0.22;;;25.00;55.60;;;;;;4509196;31;20147;-66
2022/08/05 09:37:54;;;;;;;4.72;0.50;;;25.10;55.50;;;;;;4509600;31;20104;-66
2022/08/05 09:40:38;;;;;;;1.45;0.40;;;25.10;55.60;;;;;;4509661;31;20092;-67
2022/08/05 09:43:05;;;;;;;;;;;25.10;55.30;;;;;;4509942;31;20434;-66
2022/08/05 09:45:41;;;;;;;2.10;0.25;;;25.10;55.30;;;;;;4508723;31;19984;-68
2022/08/05 09:48:28;;;;;;;2.20;0.40;;;25.10;54.80;;;;;;4508958;31;20127;-66
2022/08/05 09:51:03;;;;;;;1.25;0.30;;;25.10;54.30;;;;;;4509534;31;20069;-67
2022/08/05 09:53:45;;;;;;;0.85;0.32;;;25.00;54.40;;;;;;4509175;31;20084;-67
2022/08/05 09:56:11;;;;;;;2.40;0.40;;;25.10;54.40;;;;;;4509428;31;20080;-67
2022/08/05 09:58:37;;;;;;;2.92;0.30;;;25.10;54.00;;;;;;4509024;31;20064;-67
2022/08/05 10:01:05;;;;;;;3.05;0.70;;;25.10;53.80;;;;;;4509294;31;20140;-67
2022/08/05 10:03:32;;;;;;;1.63;0.77;;;25.10;53.40;;;;;;4508213;31;20324;-67
2022/08/05 10:06:07;;;;;;;0.88;0.20;;;25.10;53.20;;;;;;4508930;31;20061;-67
2022/08/05 10:08:37;;;;;;;1.85;0.45;;;25.10;52.90;;;;;;4508944;31;20598;-67
2022/08/05 10:11:14;;;;;;;2.25;0.50;;;25.20;52.70;;;;;;4508838;31;20092;-67
2022/08/05 10:13:42;;;;;;;1.52;0.40;;;25.20;52.40;;;;;;4509019;31;20081;-67
2022/08/05 10:16:31;;;;;;;3.72;0.40;;;25.20;52.10;;;;;;4508770;31;20095;-69
2022/08/05 10:18:57;;;;;;;2.35;0.43;;;25.20;51.90;;;;;;4509133;31;20080;-69
2022/08/05 10:21:23;;;;;;;1.60;0.50;;;25.20;51.70;;;;;;4508703;31;20690;-70
2022/08/05 10:23:50;;;;;;;1.70;0.52;;;25.20;50.90;;;;;;4508667;31;20088;-67
2022/08/05 10:26:16;;;;;;;2.05;0.75;;;25.20;50.80;;;;;;4508596;31;20087;-67
2022/08/05 10:28:44;;;;;;;1.20;0.30;;;25.20;50.60;;;;;;4508529;31;20127;-68
2022/08/05 10:31:11;;;;;;;2.20;0.30;;;25.30;50.70;;;;;;4508565;31;20088;-67
2022/08/05 10:33:38;;;;;;;2.90;0.50;;;25.30;50.30;;;;;;4508749;31;20086;-68
2022/08/05 10:36:04;;;;;;;3.45;0.73;;;25.30;50.50;;;;;;4508443;31;20094;-68
2022/08/05 10:38:32;;;;;;;2.67;0.60;;;25.30;50.10;;;;;;4508797;31;20076;-68
2022/08/05 10:41:12;;;;;;;1.75;0.30;;;25.30;49.70;;;;;;4508543;31;20568;-67
2022/08/05 10:43:47;;;;;;;0.80;0.20;;;25.30;49.70;;;;;;4508423;31;20053;-68
2022/08/05 10:46:15;;;;;;;1.52;0.45;;;25.30;49.50;;;;;;4508689;31;20549;-68
2022/08/05 10:48:43;;;;;;;3.10;0.30;;;25.30;49.70;;;;;;4508635;31;20080;-67
2022/08/05 10:51:10;;;;;;;3.88;0.50;;;25.30;49.50;;;;;;4508341;31;20080;-67
2022/08/05 10:53:43;;;;;;;3.33;0.22;;;25.30;49.80;;;;;;4508009;31;20084;-68
2022/08/05 10:56:23;;;;;;;1.52;0.30;;;25.30;49.70;;;;;;4508754;31;20534;-68
2022/08/05 10:59:03;;;;;;;0.75;0.32;;;25.30;49.00;;;;;;4508131;31;20069;-68
2022/08/05 11:01:30;;;;;;;3.50;0.40;;;25.30;49.00;;;;;;4508517;31;20057;-67
2022/08/05 11:04:13;;;;;;;2.45;0.45;;;25.30;49.10;;;;;;4494022;31;20169;-66
2022/08/05 11:07:03;;;;;;;1.33;0.20;;;25.30;48.70;;;;;;4508204;31;20061;-67
2022/08/05 11:09:52;;;;;;;0.98;0.25;;;25.30;48.60;;;;;;4507886;31;20230;-67
2022/08/05 11:12:45;;;;;;;2.03;0.20;;;25.30;48.20;;;;;;4508332;31;20064;-67
2022/08/05 11:15:17;;;;;;;1.63;0.32;;;25.30;48.30;;;;;;4508507;31;20091;-66
2022/08/05 11:17:44;;;;;;;8.23;1.05;;;25.20;48.30;;;;;;4507955;31;20108;-72
2022/08/05 11:20:32;;;;;;;5.90;0.80;;;25.30;48.00;;;;;;4507702;31;20165;-67
2022/08/05 11:22:59;;;;;;;5.75;0.75;;;25.40;47.90;;;;;;4507827;31;20085;-67
2022/08/05 11:25:36;;;;;;;3.35;1.05;;;25.50;48.00;;;;;;4508027;31;20084;-67
2022/08/05 11:28:10;;;;;;;6.63;0.80;;;25.40;47.90;;;;;;4508076;31;20092;-67
2022/08/05 11:30:57;;;;;;;3.30;0.60;;;25.40;48.10;;;;;;4507936;31;20084;-68
2022/08/05 11:33:37;;;;;;;3.67;0.52;;;25.50;48.20;;;;;;4507601;31;20093;-68
2022/08/05 11:36:05;;;;;;;2.67;0.57;;;25.40;48.30;;;;;;4507557;31;20104;-66
2022/08/05 11:38:43;;;;;;;1.95;0.52;;;25.40;48.50;;;;;;4507762;31;20069;-68
2022/08/05 11:41:20;;;;;;;3.00;0.55;;;25.40;48.90;;;;;;4507994;31;20088;-69
2022/08/05 11:44:11;;;;;;;2.97;0.60;;;25.40;49.10;;;;;;4507368;31;20085;-68
2022/08/05 11:46:45;;;;;;;4.15;0.50;;;25.40;49.10;;;;;;4508074;31;20158;-67
2022/08/05 11:49:14;;;;;;;3.50;0.50;;;25.30;49.10;;;;;;4507803;31;20153;-67
2022/08/05 11:51:44;;;;;;;0.98;0.40;;;25.40;49.10;;;;;;4507483;31;20093;-67
2022/08/05 11:54:11;;;;;;;4.25;0.60;;;25.30;49.40;;;;;;4507783;31;20088;-67
2022/08/05 11:56:50;;;;;;;4.72;0.43;;;25.30;49.40;;;;;;4507473;31;20069;-68
2022/08/05 11:59:18;;;;;;;4.28;0.50;;;25.30;49.50;;;;;;4507563;31;20162;-68
2022/08/05 12:02:11;;;;;;;0.95;0.20;;;25.30;49.20;;;;;;4507603;31;20230;-68
2022/08/05 12:04:37;;;;;;;1.67;0.30;;;25.30;49.40;;;;;;4491141;31;20088;-68
2022/08/05 12:07:06;;;;;;;1.67;0.40;;;25.30;49.50;;;;;;4507505;31;20083;-67
2022/08/05 12:09:37;;;;;;;1.63;0.43;;;25.20;49.40;;;;;;4507221;31;20165;-67
2022/08/05 12:12:04;;;;;;;3.80;0.47;;;25.20;49.20;;;;;;4507459;31;20641;-66
2022/08/05 12:14:42;;;;;;;3.50;0.50;;;25.30;49.30;;;;;;4507432;31;20166;-66
2022/08/05 12:17:10;;;;;;;4.47;0.60;;;25.30;49.30;;;;;;4507641;31;20069;-67
2022/08/05 12:19:46;;;;;;;2.95;0.32;;;25.30;50.20;;;;;;4507091;31;20135;-67
2022/08/05 12:22:13;;;;;;;2.55;0.43;;;25.30;48.80;;;;;;4507701;31;20186;-67
2022/08/05 12:24:42;;;;;;;7.72;0.77;;;25.30;49.00;;;;;;4507197;31;20092;-67
2022/08/05 12:27:08;;;;;;;3.00;0.32;;;25.30;49.10;;;;;;4508243;31;20595;-67
2022/08/05 12:29:34;;;;;;;1.42;0.40;;;25.30;49.00;;;;;;4510112;31;20092;-67
2022/08/05 12:32:00;;;;;;;2.25;0.25;;;25.30;49.00;;;;;;4510303;31;20067;-67
2022/08/05 12:34:28;;;;;;;3.80;0.65;;;25.30;49.30;;;;;;4495941;31;20169;-66
2022/08/05 12:37:06;;;;;;;1.90;0.55;;;25.30;49.00;;;;;;4510209;31;20169;-67
2022/08/05 12:39:32;;;;;;;1.67;0.40;;;25.30;48.90;;;;;;4510554;31;20072;-68
2022/08/05 12:41:58;;;;;;;5.55;0.45;;;25.30;48.90;;;;;;4510380;31;20194;-67
2022/08/05 12:44:25;;;;;;;0.90;0.30;;;25.30;49.00;;;;;;4509507;31;20292;-67
2022/08/05 12:46:52;;;;;;;2.17;0.50;;;25.30;49.00;;;;;;4510319;31;20093;-66
2022/08/05 12:49:19;;;;;;;2.88;0.50;;;25.30;48.90;;;;;;4510013;31;20077;-67
2022/08/05 12:51:54;;;;;;;7.90;0.50;;;25.30;49.00;;;;;;4510160;31;20398;-67
2022/08/05 12:54:23;;;;;;;0.85;0.47;;;25.30;48.90;;;;;;4509947;31;20080;-67
2022/08/05 12:56:59;;;;;;;1.30;0.30;;;25.30;48.70;;;;;;4510228;31;20186;-66
2022/08/05 12:59:27;;;;;;;2.42;0.65;;;25.30;48.60;;;;;;4510393;31;20406;-67
2022/08/05 13:01:58;;;;;;;3.50;0.40;;;25.20;48.60;;;;;;4510135;31;20091;-66